createdAt,value
2023-05-06T00:01:43.889Z,53.73
2023-05-06T00:04:11.632Z,54.00
2023-05-06T00:06:39.071Z,54.25
2023-05-06T00:09:06.513Z,54.16
2023-05-06T00:11:34.221Z,54.41
2023-05-06T00:14:01.602Z,54.34
2023-05-06T00:16:29.008Z,54.47
2023-05-06T00:18:56.717Z,54.46
2023-05-06T00:21:24.084Z,54.27
2023-05-06T00:23:51.511Z,54.33
2023-05-06T00:26:19.161Z,54.57
2023-05-06T00:28:46.571Z,54.31
2023-05-06T00:31:14.059Z,54.37
2023-05-06T00:33:41.839Z,54.49
2023-05-06T00:36:09.262Z,54.68
2023-05-06T00:38:36.637Z,54.56
2023-05-06T00:41:04.523Z,54.60
2023-05-06T00:43:31.871Z,54.59
2023-05-06T00:45:59.382Z,54.56
2023-05-06T00:48:27.398Z,54.72
2023-05-06T00:50:54.924Z,54.52
2023-05-06T00:53:22.396Z,54.78
2023-05-06T00:55:51.249Z,54.69
2023-05-06T00:58:20.219Z,54.67
2023-05-06T01:00:47.686Z,54.69
2023-05-06T01:03:15.897Z,54.81
2023-05-06T01:05:53.622Z,54.81
2023-05-06T01:08:36.038Z,54.79
2023-05-06T01:11:26.565Z,54.46
2023-05-06T01:14:35.768Z,54.89
2023-05-06T01:17:06.402Z,54.76
2023-05-06T01:19:43.340Z,54.85
2023-05-06T01:22:11.727Z,54.85
2023-05-06T01:24:44.008Z,55.15
2023-05-06T01:27:13.266Z,55.00
2023-05-06T01:29:42.598Z,55.17
2023-05-06T01:32:34.746Z,54.97
2023-05-06T01:35:33.270Z,54.86
2023-05-06T01:38:17.752Z,55.04
2023-05-06T01:40:49.023Z,55.08
2023-05-06T01:43:17.098Z,55.33
2023-05-06T01:45:49.663Z,55.40
2023-05-06T01:48:16.959Z,55.58
2023-05-06T01:50:44.759Z,55.52
2023-05-06T01:53:12.242Z,55.77
2023-05-06T01:55:39.628Z,55.59
2023-05-06T01:58:07.296Z,55.70
2023-05-06T02:00:34.956Z,56.00
2023-05-06T02:03:02.752Z,56.06
2023-05-06T02:05:30.835Z,56.24
2023-05-06T02:07:58.535Z,56.06
2023-05-06T02:10:26.286Z,55.67
2023-05-06T02:12:55.122Z,55.96
2023-05-06T02:15:23.370Z,55.74
2023-05-06T02:17:51.088Z,55.74
2023-05-06T02:20:18.469Z,55.81
2023-05-06T02:22:45.904Z,55.87
2023-05-06T02:25:13.622Z,55.86
2023-05-06T02:27:41.053Z,55.78
2023-05-06T02:30:08.744Z,55.76
2023-05-06T02:32:36.582Z,56.11
2023-05-06T02:35:04.301Z,56.09
2023-05-06T02:37:31.786Z,55.98
2023-05-06T02:40:00.795Z,55.98
2023-05-06T02:42:28.220Z,55.95
2023-05-06T02:44:55.673Z,56.32
2023-05-06T02:47:24.652Z,55.98
2023-05-06T02:49:52.071Z,56.16
2023-05-06T02:52:19.455Z,56.05
2023-05-06T02:54:47.203Z,56.13
2023-05-06T02:57:14.649Z,56.10
2023-05-06T02:59:42.107Z,56.33
2023-05-06T03:02:09.754Z,56.15
2023-05-06T03:04:37.226Z,56.41
2023-05-06T03:07:04.686Z,56.41
2023-05-06T03:09:32.644Z,56.53
2023-05-06T03:12:00.577Z,56.59
2023-05-06T03:14:28.268Z,56.56
2023-05-06T03:16:56.240Z,56.39
2023-05-06T03:19:23.739Z,56.10
2023-05-06T03:21:51.184Z,56.14
2023-05-06T03:24:19.965Z,56.46
2023-05-06T03:26:47.568Z,56.45
2023-05-06T03:29:15.016Z,56.53
2023-05-06T03:31:43.082Z,56.57
2023-05-06T03:34:11.585Z,56.67
2023-05-06T03:36:39.080Z,56.81
2023-05-06T03:39:06.901Z,56.51
2023-05-06T03:41:34.708Z,56.56
2023-05-06T03:44:02.702Z,57.16
2023-05-06T03:46:31.177Z,57.58
2023-05-06T03:49:00.677Z,57.13
2023-05-06T03:51:28.735Z,57.23
2023-05-06T03:53:57.027Z,57.24
2023-05-06T03:56:25.000Z,57.55
2023-05-06T03:58:54.585Z,57.30
2023-05-06T04:01:23.685Z,57.35
2023-05-06T04:03:52.270Z,57.28
2023-05-06T04:06:19.854Z,57.34
2023-05-06T04:08:47.740Z,57.42
2023-05-06T04:11:15.615Z,57.25
2023-05-06T04:13:43.023Z,57.23
2023-05-06T04:16:10.772Z,57.21
2023-05-06T04:18:39.731Z,57.19
2023-05-06T04:21:07.357Z,57.22
2023-05-06T04:23:35.210Z,57.33
2023-05-06T04:26:02.951Z,57.52
2023-05-06T04:28:31.089Z,57.52
2023-05-06T04:30:59.038Z,57.29
2023-05-06T04:33:29.308Z,57.56
2023-05-06T04:35:57.223Z,57.22
2023-05-06T04:38:27.123Z,57.21
2023-05-06T04:40:55.508Z,57.10
2023-05-06T04:43:23.103Z,57.57
2023-05-06T04:45:52.885Z,57.58
2023-05-06T04:48:22.384Z,57.91
2023-05-06T04:50:50.981Z,57.77
2023-05-06T04:53:18.653Z,57.89
2023-05-06T04:55:47.241Z,57.58
2023-05-06T04:58:15.750Z,57.69
2023-05-06T05:00:43.595Z,57.90
2023-05-06T05:03:11.558Z,57.96
2023-05-06T05:05:39.171Z,57.78
2023-05-06T05:08:07.990Z,57.72
2023-05-06T05:10:36.170Z,57.59
2023-05-06T05:13:03.938Z,57.17
2023-05-06T05:15:31.421Z,57.29
2023-05-06T05:17:59.206Z,57.17
2023-05-06T05:20:27.118Z,56.80
2023-05-06T05:22:54.948Z,56.79
2023-05-06T05:25:23.083Z,56.55
2023-05-06T05:27:50.639Z,56.29
2023-05-06T05:30:18.696Z,55.86
2023-05-06T05:32:46.711Z,55.92
2023-05-06T05:35:14.420Z,56.02
2023-05-06T05:37:42.671Z,56.47
2023-05-06T05:40:11.023Z,57.05
2023-05-06T05:42:40.159Z,56.73
2023-05-06T05:45:09.143Z,56.52
2023-05-06T05:47:37.432Z,56.03
2023-05-06T05:50:06.286Z,55.24
2023-05-06T05:52:33.694Z,54.96
2023-05-06T05:55:01.736Z,54.11
2023-05-06T05:57:29.144Z,53.51
2023-05-06T05:59:56.593Z,53.22
2023-05-06T06:02:24.432Z,52.41
2023-05-06T06:04:52.848Z,52.12
2023-05-06T06:07:20.422Z,51.88
2023-05-06T06:09:48.908Z,51.54
2023-05-06T06:12:18.022Z,51.28
2023-05-06T06:14:48.066Z,50.51
2023-05-06T06:17:16.723Z,49.67
2023-05-06T06:19:47.534Z,49.92
2023-05-06T06:22:15.003Z,49.57
2023-05-06T06:24:43.155Z,49.79
2023-05-06T06:27:11.603Z,49.88
2023-05-06T06:29:39.329Z,50.02
2023-05-06T06:32:07.914Z,49.11
2023-05-06T06:34:35.663Z,48.94
2023-05-06T06:37:03.395Z,48.77
2023-05-06T06:39:30.784Z,48.30
2023-05-06T06:41:58.585Z,47.89
2023-05-06T06:44:26.078Z,47.22
2023-05-06T06:46:53.525Z,46.63
2023-05-06T06:49:21.247Z,46.15
2023-05-06T06:51:48.646Z,45.11
2023-05-06T06:54:16.039Z,45.27
2023-05-06T06:56:43.717Z,44.78
2023-05-06T06:59:11.061Z,44.91
2023-05-06T07:01:38.455Z,44.76
2023-05-06T07:04:07.372Z,43.63
2023-05-06T07:06:34.879Z,43.48
2023-05-06T07:09:02.402Z,43.20
2023-05-06T07:11:30.108Z,42.92
2023-05-06T07:13:57.631Z,42.44
2023-05-06T07:16:25.396Z,41.80
2023-05-06T07:18:53.835Z,41.51
2023-05-06T07:21:21.253Z,41.37
2023-05-06T07:23:48.967Z,40.86
2023-05-06T07:26:16.664Z,40.76
2023-05-06T07:28:44.154Z,40.55
2023-05-06T07:31:11.592Z,40.90
2023-05-06T07:33:39.325Z,41.20
2023-05-06T07:36:07.068Z,40.42
2023-05-06T07:38:34.440Z,40.45
2023-05-06T07:41:02.144Z,40.51
2023-05-06T07:43:29.872Z,40.94
2023-05-06T07:46:02.616Z,40.24
2023-05-06T07:48:30.555Z,40.48
2023-05-06T07:50:58.405Z,40.29
2023-05-06T07:53:26.289Z,40.34
2023-05-06T07:55:56.065Z,40.91
2023-05-06T07:58:23.448Z,40.29
2023-05-06T08:00:50.898Z,39.96
2023-05-06T08:03:18.651Z,40.45
2023-05-06T08:05:46.227Z,40.35
2023-05-06T08:08:13.635Z,40.07
2023-05-06T08:10:41.375Z,39.58
2023-05-06T08:13:08.754Z,39.48
2023-05-06T08:15:36.551Z,39.67
2023-05-06T08:18:21.035Z,38.59
2023-05-06T08:20:51.243Z,38.86
2023-05-06T08:23:18.957Z,38.25
2023-05-06T08:25:46.610Z,38.06
2023-05-06T08:28:14.177Z,38.32
2023-05-06T08:30:42.039Z,38.54
2023-05-06T08:33:09.480Z,38.52
2023-05-06T08:35:36.980Z,37.83
2023-05-06T08:38:04.699Z,37.77
2023-05-06T08:40:33.607Z,37.29
2023-05-06T08:43:03.505Z,37.25
2023-05-06T08:45:32.987Z,37.48
2023-05-06T08:48:00.636Z,36.64
2023-05-06T08:50:28.382Z,36.70
2023-05-06T08:52:56.064Z,36.96
2023-05-06T08:55:24.345Z,36.96
2023-05-06T08:57:53.042Z,37.32
2023-05-06T09:00:20.729Z,37.28
2023-05-06T09:02:48.313Z,37.23
2023-05-06T09:05:16.371Z,37.66
2023-05-06T09:07:44.090Z,37.17
2023-05-06T09:10:13.084Z,36.47
2023-05-06T09:12:40.663Z,36.56
2023-05-06T09:15:09.634Z,36.37
2023-05-06T09:17:37.216Z,37.06
2023-05-06T09:20:08.266Z,35.69
2023-05-06T09:22:38.631Z,36.87
2023-05-06T09:25:06.738Z,35.25
2023-05-06T09:27:35.115Z,35.09
2023-05-06T09:30:05.746Z,34.22
2023-05-06T09:32:36.726Z,34.80
2023-05-06T09:35:06.118Z,34.94
2023-05-06T09:37:33.432Z,34.95
2023-05-06T09:40:01.273Z,33.45
2023-05-06T09:42:30.933Z,33.19
2023-05-06T09:45:02.000Z,33.19
2023-05-06T09:47:35.736Z,32.66
2023-05-06T09:50:04.030Z,33.39
2023-05-06T09:52:32.949Z,33.91
2023-05-06T09:55:01.571Z,33.83
2023-05-06T09:57:31.314Z,32.45
2023-05-06T10:00:00.588Z,32.18
2023-05-06T10:02:28.672Z,32.59
2023-05-06T10:04:57.464Z,31.44
2023-05-06T10:07:28.716Z,31.03
2023-05-06T10:09:58.626Z,30.63
2023-05-06T10:12:26.432Z,32.19
2023-05-06T10:14:53.857Z,32.29
2023-05-06T10:17:24.816Z,31.22
2023-05-06T10:19:55.932Z,30.52
2023-05-06T10:22:51.888Z,29.86
2023-05-06T10:25:38.553Z,29.79
2023-05-06T10:28:10.095Z,30.96
2023-05-06T10:30:44.348Z,32.20
2023-05-06T10:33:12.640Z,31.18
2023-05-06T10:35:57.146Z,30.63
2023-05-06T10:38:28.497Z,32.15
2023-05-06T10:40:56.491Z,32.48
2023-05-06T10:43:25.371Z,31.58
2023-05-06T10:46:21.118Z,30.96
2023-05-06T10:49:08.560Z,31.23
2023-05-06T10:51:37.066Z,32.90
2023-05-06T10:54:09.015Z,32.07
2023-05-06T10:56:38.416Z,32.24
2023-05-06T10:59:07.913Z,30.82
2023-05-06T11:01:42.995Z,31.33
2023-05-06T11:04:15.558Z,32.89
2023-05-06T11:06:48.750Z,31.35
2023-05-06T11:09:27.532Z,32.23
2023-05-06T11:12:03.081Z,30.05
2023-05-06T11:14:35.683Z,30.53
2023-05-06T11:17:29.411Z,31.61
2023-05-06T11:20:19.146Z,29.80
2023-05-06T11:22:46.617Z,29.61
2023-05-06T11:25:14.457Z,30.24
2023-05-06T11:27:41.911Z,30.58
2023-05-06T11:30:14.840Z,29.95
2023-05-06T11:32:43.007Z,31.01
2023-05-06T11:35:11.799Z,31.26
2023-05-06T11:37:39.285Z,31.13
2023-05-06T11:40:14.551Z,31.93
2023-05-06T11:42:42.097Z,31.46
2023-05-06T11:45:11.614Z,32.28
2023-05-06T11:47:43.532Z,32.31
2023-05-06T11:50:11.534Z,32.94
2023-05-06T11:52:40.153Z,32.47
2023-05-06T11:55:09.953Z,32.63
2023-05-06T11:57:44.629Z,32.88
2023-05-06T12:00:13.208Z,33.22
2023-05-06T12:02:41.154Z,34.03
2023-05-06T12:05:09.480Z,34.41
2023-05-06T12:07:37.245Z,34.54
2023-05-06T12:10:05.112Z,34.80
2023-05-06T12:15:00.893Z,34.75
2023-05-06T12:17:28.321Z,34.81
2023-05-06T12:19:56.202Z,35.45
2023-05-06T12:22:26.784Z,35.23
2023-05-06T12:24:54.319Z,33.83
2023-05-06T12:27:29.472Z,35.12
2023-05-06T12:29:56.896Z,35.02
2023-05-06T12:32:24.565Z,34.09
2023-05-06T12:34:52.050Z,34.40
2023-05-06T12:37:28.764Z,34.72
2023-05-06T12:39:59.066Z,35.10
2023-05-06T12:42:27.458Z,34.97
2023-05-06T12:44:55.042Z,35.45
2023-05-06T12:47:24.875Z,36.08
2023-05-06T12:49:54.707Z,34.76
2023-05-06T12:52:23.594Z,34.74
2023-05-06T12:54:52.721Z,34.80
2023-05-06T12:57:20.800Z,35.18
2023-05-06T12:59:48.617Z,34.73
2023-05-06T13:02:16.464Z,35.49
2023-05-06T13:04:45.257Z,36.35
2023-05-06T13:07:12.765Z,35.68
2023-05-06T13:09:40.554Z,35.09
2023-05-06T13:12:08.304Z,35.44
2023-05-06T13:14:37.819Z,34.54
2023-05-06T13:17:07.737Z,35.01
2023-05-06T13:19:35.179Z,34.71
2023-05-06T13:22:02.807Z,34.95
2023-05-06T13:24:30.861Z,34.81
2023-05-06T13:27:00.860Z,35.01
2023-05-06T13:29:29.945Z,35.13
2023-05-06T13:31:57.860Z,35.98
2023-05-06T13:34:25.974Z,36.79
2023-05-06T13:36:54.712Z,37.25
2023-05-06T13:39:22.789Z,37.77
2023-05-06T13:41:50.313Z,38.92
2023-05-06T13:44:18.662Z,39.78
2023-05-06T13:46:46.879Z,40.45
2023-05-06T13:49:14.707Z,40.53
2023-05-06T13:51:42.086Z,41.29
2023-05-06T13:54:10.139Z,41.65
2023-05-06T13:56:37.609Z,41.35
2023-05-06T13:59:05.007Z,41.58
2023-05-06T14:01:32.740Z,41.82
2023-05-06T14:04:00.452Z,41.94
2023-05-06T14:06:27.880Z,42.39
2023-05-06T14:08:55.776Z,42.37
2023-05-06T14:11:23.498Z,41.88
2023-05-06T14:13:50.963Z,42.81
2023-05-06T14:16:18.632Z,44.08
2023-05-06T14:18:46.406Z,44.93
2023-05-06T14:21:13.882Z,45.68
2023-05-06T14:23:41.487Z,46.42
2023-05-06T14:26:09.179Z,46.20
2023-05-06T14:28:36.635Z,46.25
2023-05-06T14:31:04.152Z,46.37
2023-05-06T14:33:31.866Z,46.37
2023-05-06T14:36:00.089Z,46.62
2023-05-06T14:38:27.458Z,46.39
2023-05-06T14:40:55.502Z,46.37
2023-05-06T14:43:23.688Z,46.27
2023-05-06T14:45:51.119Z,46.46
2023-05-06T14:48:18.875Z,46.64
2023-05-06T14:50:46.225Z,46.72
2023-05-06T14:53:13.651Z,46.73
2023-05-06T14:55:41.454Z,47.04
2023-05-06T14:58:08.887Z,47.05
2023-05-06T15:00:36.305Z,48.15
2023-05-06T15:03:04.666Z,48.00
2023-05-06T15:05:32.174Z,48.28
2023-05-06T15:07:59.582Z,48.58
2023-05-06T15:10:27.270Z,48.80
2023-05-06T15:12:54.694Z,48.65
2023-05-06T15:15:22.119Z,48.46
2023-05-06T15:17:52.372Z,49.09
2023-05-06T15:20:19.823Z,50.14
2023-05-06T15:22:47.465Z,49.66
2023-05-06T15:25:26.235Z,49.13
2023-05-06T15:28:01.368Z,49.20
2023-05-06T15:30:29.025Z,49.08
2023-05-06T15:32:56.527Z,49.03
2023-05-06T15:35:23.947Z,49.53
2023-05-06T15:37:55.457Z,49.44
2023-05-06T15:40:25.478Z,49.23
2023-05-06T15:42:53.214Z,48.49
2023-05-06T15:45:21.039Z,47.93
2023-05-06T15:47:48.631Z,47.93
2023-05-06T15:50:31.780Z,48.09
2023-05-06T15:53:02.102Z,47.70
2023-05-06T15:55:30.206Z,47.48
2023-05-06T16:00:28.158Z,47.39
2023-05-06T16:02:55.969Z,47.39
2023-05-06T16:05:23.497Z,47.25
2023-05-06T16:07:50.910Z,46.98
2023-05-06T16:10:18.590Z,46.56
2023-05-06T16:12:46.033Z,45.99
2023-05-06T16:15:13.498Z,46.19
2023-05-06T16:17:41.336Z,45.74
2023-05-06T16:20:10.502Z,46.17
2023-05-06T16:22:41.741Z,46.08
2023-05-06T16:25:09.881Z,46.51
2023-05-06T16:27:37.247Z,46.42
2023-05-06T16:30:05.053Z,46.87
2023-05-06T16:32:32.725Z,47.30
2023-05-06T16:35:00.165Z,47.73
2023-05-06T16:37:29.076Z,48.29
2023-05-06T16:39:56.806Z,48.08
2023-05-06T16:42:24.589Z,48.45
2023-05-06T16:44:52.305Z,48.64
2023-05-06T16:47:23.508Z,48.95
2023-05-06T16:49:51.104Z,49.10
2023-05-06T16:52:19.246Z,49.26
2023-05-06T16:54:46.888Z,49.77
2023-05-06T16:57:14.319Z,50.05
2023-05-06T16:59:41.740Z,50.35
2023-05-06T17:02:09.437Z,50.25
2023-05-06T17:04:37.555Z,50.23
2023-05-06T17:07:04.961Z,50.37
2023-05-06T17:09:32.758Z,50.58
2023-05-06T17:12:00.160Z,50.50
2023-05-06T17:14:28.129Z,50.38
2023-05-06T17:16:56.252Z,50.22
2023-05-06T17:19:23.790Z,50.20
2023-05-06T17:21:51.225Z,50.13
2023-05-06T17:24:18.932Z,49.95
2023-05-06T17:26:46.629Z,49.81
2023-05-06T17:29:14.111Z,49.81
2023-05-06T17:31:41.885Z,49.96
2023-05-06T17:34:09.249Z,49.81
2023-05-06T17:36:37.016Z,49.62
2023-05-06T17:39:05.263Z,49.46
2023-05-06T17:41:33.530Z,49.52
2023-05-06T17:44:01.214Z,49.63
2023-05-06T17:46:28.945Z,49.94
2023-05-06T17:48:56.361Z,49.94
2023-05-06T17:51:24.079Z,50.11
2023-05-06T17:53:51.901Z,50.02
2023-05-06T17:56:20.395Z,50.37
2023-05-06T17:58:47.836Z,50.93
2023-05-06T18:01:15.590Z,51.04
2023-05-06T18:03:43.963Z,51.15
2023-05-06T18:06:12.595Z,51.26
2023-05-06T18:08:39.990Z,51.51
2023-05-06T18:11:07.804Z,51.59
2023-05-06T18:13:36.338Z,51.64
2023-05-06T18:16:04.445Z,52.03
2023-05-06T18:18:32.304Z,52.40
2023-05-06T18:20:59.784Z,52.80
2023-05-06T18:23:28.144Z,52.75
2023-05-06T18:25:55.967Z,53.17
2023-05-06T18:28:23.333Z,53.21
2023-05-06T18:30:50.738Z,53.22
2023-05-06T18:33:20.162Z,53.04
2023-05-06T18:35:47.700Z,53.32
2023-05-06T18:38:15.650Z,53.03
2023-05-06T18:40:46.868Z,52.96
2023-05-06T18:43:14.282Z,53.13
2023-05-06T18:45:42.866Z,52.85
2023-05-06T18:48:11.031Z,52.99
2023-05-06T18:50:38.533Z,52.89
2023-05-06T18:53:05.954Z,52.78
2023-05-06T18:55:33.744Z,53.01
2023-05-06T18:58:05.529Z,53.08
2023-05-06T19:00:32.951Z,52.94
2023-05-06T19:03:00.805Z,53.40
2023-05-06T19:05:28.322Z,53.38
2023-05-06T19:07:55.734Z,53.32
2023-05-06T19:10:23.414Z,53.72
2023-05-06T19:12:50.837Z,53.69
2023-05-06T19:15:19.144Z,53.54
2023-05-06T19:17:46.843Z,53.49
2023-05-06T19:20:14.417Z,53.77
2023-05-06T19:22:42.005Z,53.99
2023-05-06T19:25:10.262Z,54.20
2023-05-06T19:27:37.794Z,54.33
2023-05-06T19:30:05.962Z,54.30
2023-05-06T19:32:33.811Z,54.50
2023-05-06T19:35:07.913Z,54.75
2023-05-06T19:37:37.046Z,54.90
2023-05-06T19:40:04.954Z,54.85
2023-05-06T19:42:33.834Z,54.86
2023-05-06T19:45:08.839Z,54.44
2023-05-06T19:47:36.466Z,54.60
2023-05-06T19:50:05.083Z,54.55
2023-05-06T19:52:34.461Z,55.29
2023-05-06T19:55:03.087Z,55.74
2023-05-06T19:57:33.512Z,55.86
2023-05-06T20:00:05.231Z,55.97
2023-05-06T20:02:32.996Z,56.90
2023-05-06T20:05:00.880Z,57.27
2023-05-06T20:07:28.520Z,58.22
2023-05-06T20:09:56.865Z,58.17
2023-05-06T20:12:27.752Z,57.76
2023-05-06T20:14:56.049Z,58.10
2023-05-06T20:17:23.938Z,58.47
2023-05-06T20:19:52.392Z,58.32
2023-05-06T20:22:19.993Z,58.52
2023-05-06T20:24:47.718Z,58.88
2023-05-06T20:27:15.398Z,58.92
2023-05-06T20:29:42.852Z,58.86
2023-05-06T20:32:10.560Z,58.60
2023-05-06T20:34:38.026Z,58.41
2023-05-06T20:37:05.456Z,58.71
2023-05-06T20:39:33.794Z,58.92
2023-05-06T20:42:02.123Z,58.71
2023-05-06T20:44:29.499Z,58.73
2023-05-06T20:46:57.152Z,58.92
2023-05-06T20:49:24.659Z,59.27
2023-05-06T20:51:52.095Z,59.25
2023-05-06T20:54:19.778Z,59.35
2023-05-06T20:56:47.156Z,59.56
2023-05-06T20:59:14.524Z,59.83
2023-05-06T21:01:42.308Z,59.88
2023-05-06T21:04:09.786Z,59.71
2023-05-06T21:06:37.193Z,60.27
2023-05-06T21:09:04.873Z,60.52
2023-05-06T21:11:32.379Z,60.42
2023-05-06T21:13:59.828Z,60.77
2023-05-06T21:16:27.704Z,60.58
2023-05-06T21:18:55.139Z,60.36
2023-05-06T21:21:24.326Z,60.45
2023-05-06T21:23:51.979Z,60.27
2023-05-06T21:26:19.384Z,60.45
2023-05-06T21:28:51.206Z,60.44
2023-05-06T21:31:19.708Z,60.71
2023-05-06T21:33:47.589Z,60.91
2023-05-06T21:36:14.986Z,60.62
2023-05-06T21:38:42.690Z,61.20
2023-05-06T21:41:10.154Z,61.86
2023-05-06T21:43:37.585Z,61.50
2023-05-06T21:46:05.406Z,61.48
2023-05-06T21:48:32.811Z,62.72
2023-05-06T21:51:03.631Z,62.58
2023-05-06T21:53:31.331Z,61.64
2023-05-06T21:55:58.674Z,61.43
2023-05-06T21:58:26.074Z,61.26
2023-05-06T22:00:53.769Z,61.39
2023-05-06T22:03:21.609Z,61.25
2023-05-06T22:05:49.151Z,61.36
2023-05-06T22:08:17.080Z,61.71
2023-05-06T22:10:44.835Z,61.97
2023-05-06T22:13:12.302Z,61.78
2023-05-06T22:15:39.722Z,62.23
2023-05-06T22:18:08.683Z,62.04
2023-05-06T22:20:38.755Z,61.86
2023-05-06T22:23:06.126Z,61.96
2023-05-06T22:25:33.819Z,61.79
2023-05-06T22:28:01.186Z,61.47
2023-05-06T22:30:28.625Z,61.10
2023-05-06T22:32:56.441Z,61.20
2023-05-06T22:35:23.973Z,61.70
2023-05-06T22:37:51.468Z,61.98
2023-05-06T22:40:19.185Z,62.03
2023-05-06T22:42:48.218Z,62.14
2023-05-06T22:45:15.683Z,62.34
2023-05-06T22:47:43.388Z,62.53
2023-05-06T22:50:11.516Z,62.58
2023-05-06T22:52:38.932Z,63.06
2023-05-06T22:55:09.641Z,62.93
2023-05-06T22:57:37.412Z,62.82
2023-05-06T23:00:06.693Z,62.87
2023-05-06T23:02:34.699Z,62.89
2023-05-06T23:05:02.071Z,63.10
2023-05-06T23:07:29.454Z,62.99
2023-05-06T23:09:59.470Z,62.94
2023-05-06T23:12:27.974Z,62.50
2023-05-06T23:14:55.382Z,62.64
2023-05-06T23:17:23.131Z,62.55
2023-05-06T23:19:50.659Z,62.38
2023-05-06T23:22:18.108Z,62.51
2023-05-06T23:24:45.970Z,62.48
2023-05-06T23:27:13.380Z,62.55
2023-05-06T23:29:41.248Z,62.37
2023-05-06T23:32:09.128Z,62.41
2023-05-06T23:34:36.498Z,62.30
2023-05-06T23:37:03.859Z,62.17
2023-05-06T23:39:31.581Z,62.05
2023-05-06T23:42:00.857Z,62.23
2023-05-06T23:44:28.408Z,62.24
2023-05-06T23:46:56.218Z,62.13
2023-05-06T23:49:23.771Z,62.04
2023-05-06T23:51:51.140Z,62.43
2023-05-06T23:54:18.830Z,62.20
2023-05-06T23:56:46.178Z,62.27
2023-05-06T23:59:13.701Z,62.15
